Time;durP1;ratioP1;P1;durP2;ratioP2;P2;SDS_P1;SDS_P2;PMS_P1;PMS_P2;Temp;Humidity;BMP_temperature;BMP_pressure;BME280_temperature;BME280_humidity;BME280_pressure;Samples;Min_cycle;Max_cycle;Signal;HPM_P1;HPM_P2
2023/08/18 00:00:51;;;;;;;0.00;0.00;;;22.50;99.90;;;;;;5054729;28;20180;-62
2023/08/18 00:03:17;;;;;;;0.00;0.00;;;22.50;99.90;;;;;;5054654;28;20177;-62
2023/08/18 00:05:42;;;;;;;0.10;0.08;;;22.50;99.90;;;;;;5054375;28;20170;-61
2023/08/18 00:08:08;;;;;;;0.00;0.00;;;22.40;99.90;;;;;;5054274;28;20170;-61
2023/08/18 00:10:33;;;;;;;0.00;0.00;;;22.40;99.90;;;;;;5054375;28;20216;-61
2023/08/18 00:12:59;;;;;;;0.00;0.00;;;22.40;99.90;;;;;;5054208;28;20565;-62
2023/08/18 00:15:25;;;;;;;0.05;0.05;;;22.30;99.90;;;;;;5054246;28;20272;-61
2023/08/18 00:17:50;;;;;;;0.00;0.00;;;22.20;99.90;;;;;;5054401;28;20189;-61
2023/08/18 00:20:16;;;;;;;0.00;0.00;;;22.20;99.90;;;;;;5054150;28;20298;-62
2023/08/18 00:22:42;;;;;;;0.00;0.00;;;22.20;99.90;;;;;;5054259;28;20586;-61
2023/08/18 00:25:08;;;;;;;0.00;0.00;;;22.10;99.90;;;;;;5053928;28;20181;-61
2023/08/18 00:27:34;;;;;;;0.00;0.00;;;22.10;99.90;;;;;;5053309;28;20335;-61
2023/08/18 00:29:59;;;;;;;0.00;0.00;;;22.10;99.90;;;;;;5053794;28;20603;-61
2023/08/18 00:32:25;;;;;;;0.00;0.00;;;22.10;99.90;;;;;;5053946;28;20206;-61
2023/08/18 00:34:51;;;;;;;0.10;0.10;;;22.10;99.90;;;;;;5054088;28;20180;-61
2023/08/18 00:37:16;;;;;;;0.00;0.00;;;22.10;99.90;;;;;;5052674;28;20177;-61
2023/08/18 00:39:42;;;;;;;0.35;0.20;;;22.10;99.90;;;;;;5054079;28;20185;-61
2023/08/18 00:42:07;;;;;;;0.13;0.13;;;22.00;99.90;;;;;;5053689;28;20169;-62
2023/08/18 00:44:33;;;;;;;0.00;0.00;;;22.00;99.90;;;;;;5053805;28;20204;-61
2023/08/18 00:46:59;;;;;;;0.00;0.00;;;22.00;99.90;;;;;;5053806;28;20291;-61
2023/08/18 00:49:25;;;;;;;0.00;0.00;;;22.00;99.90;;;;;;5053482;28;20218;-61
2023/08/18 00:51:51;;;;;;;0.63;0.63;;;21.90;99.90;;;;;;5053588;28;20200;-61
2023/08/18 00:54:17;;;;;;;0.08;0.08;;;21.90;99.90;;;;;;5053417;28;20251;-61
2023/08/18 00:56:43;;;;;;;0.00;0.00;;;21.80;99.90;;;;;;5053689;28;20197;-61
2023/08/18 00:59:09;;;;;;;0.00;0.00;;;21.80;99.90;;;;;;5053185;28;20235;-61
2023/08/18 01:01:34;;;;;;;0.00;0.00;;;21.70;99.90;;;;;;5052860;28;20211;-61
2023/08/18 01:04:00;;;;;;;0.00;0.00;;;21.70;99.90;;;;;;5053345;28;20220;-61
2023/08/18 01:06:25;;;;;;;0.00;0.00;;;21.70;99.90;;;;;;5053242;28;20173;-61
2023/08/18 01:08:52;;;;;;;0.00;0.00;;;21.60;99.90;;;;;;5053287;28;20216;-62
2023/08/18 01:11:21;;;;;;;0.00;0.00;;;21.60;99.90;;;;;;5053382;28;20181;-61
2023/08/18 01:14:02;;;;;;;0.00;0.00;;;21.60;99.90;;;;;;5053245;28;20173;-61
2023/08/18 01:16:29;;;;;;;0.00;0.00;;;21.60;99.90;;;;;;5053208;28;20181;-62
2023/08/18 01:18:55;;;;;;;0.00;0.00;;;21.50;99.90;;;;;;5053085;28;20172;-62
2023/08/18 01:21:24;;;;;;;0.00;0.00;;;21.50;99.90;;;;;;5052987;28;20550;-62
2023/08/18 01:23:50;;;;;;;0.00;0.00;;;21.50;99.90;;;;;;5053256;28;20173;-62
2023/08/18 01:26:16;;;;;;;0.00;0.00;;;21.50;99.90;;;;;;5051704;28;20608;-61
2023/08/18 01:28:46;;;;;;;0.00;0.00;;;21.50;99.90;;;;;;5052898;28;20233;-62
2023/08/18 01:31:17;;;;;;;0.00;0.00;;;21.50;99.90;;;;;;5052896;28;20185;-62
2023/08/18 01:33:48;;;;;;;0.10;0.10;;;21.40;99.90;;;;;;5052833;28;20228;-62
2023/08/18 01:36:20;;;;;;;0.10;0.10;;;21.40;99.90;;;;;;5052805;28;20182;-62
2023/08/18 01:38:47;;;;;;;0.00;0.00;;;21.30;99.90;;;;;;5052868;28;20199;-62
2023/08/18 01:41:15;;;;;;;0.00;0.00;;;21.30;99.90;;;;;;5052759;28;20232;-62
2023/08/18 01:43:41;;;;;;;0.00;0.00;;;21.30;99.90;;;;;;5052731;28;20708;-62
2023/08/18 01:46:07;;;;;;;0.00;0.00;;;21.20;99.90;;;;;;5052535;28;20256;-62
2023/08/18 01:48:32;;;;;;;0.00;0.00;;;21.20;99.90;;;;;;5052584;28;20177;-62
2023/08/18 01:50:58;;;;;;;0.00;0.00;;;21.20;99.90;;;;;;5052543;28;20197;-62
2023/08/18 01:53:23;;;;;;;0.00;0.00;;;21.20;99.90;;;;;;5052562;28;20213;-62
2023/08/18 01:55:49;;;;;;;0.05;0.05;;;21.10;99.90;;;;;;5052592;28;20508;-62
2023/08/18 01:58:14;;;;;;;0.20;0.20;;;21.10;99.90;;;;;;5052342;28;20546;-62
2023/08/18 02:00:40;;;;;;;0.00;0.00;;;21.10;99.90;;;;;;5052201;28;20664;-62
2023/08/18 02:03:05;;;;;;;0.10;0.10;;;21.10;99.90;;;;;;5051986;28;20268;-62
2023/08/18 02:05:31;;;;;;;0.00;0.00;;;21.00;99.90;;;;;;5052152;28;20177;-62
2023/08/18 02:07:57;;;;;;;0.00;0.00;;;21.00;99.90;;;;;;5052220;28;20235;-61
2023/08/18 02:10:23;;;;;;;0.10;0.10;;;21.00;99.90;;;;;;5052178;28;20217;-61
2023/08/18 02:12:48;;;;;;;0.00;0.00;;;21.00;99.90;;;;;;5051215;28;20181;-62
2023/08/18 02:15:14;;;;;;;0.00;0.00;;;20.90;99.90;;;;;;5052056;28;20268;-62
2023/08/18 02:17:39;;;;;;;0.00;0.00;;;20.90;99.90;;;;;;5052054;28;20170;-62
2023/08/18 02:20:08;;;;;;;0.00;0.00;;;20.90;99.90;;;;;;5051801;28;20212;-62
2023/08/18 02:22:34;;;;;;;0.00;0.00;;;20.90;99.90;;;;;;5052060;28;20183;-62
2023/08/18 02:24:59;;;;;;;0.00;0.00;;;20.80;99.90;;;;;;5052143;28;20264;-62
2023/08/18 02:27:25;;;;;;;0.00;0.00;;;20.70;99.90;;;;;;5051962;28;20223;-62
2023/08/18 02:29:52;;;;;;;0.03;0.03;;;20.70;99.90;;;;;;5051811;28;20287;-62
2023/08/18 02:32:18;;;;;;;0.00;0.00;;;20.70;99.90;;;;;;5051729;28;20641;-62
2023/08/18 02:34:45;;;;;;;0.00;0.00;;;20.60;99.90;;;;;;5051843;28;20243;-61
2023/08/18 02:37:11;;;;;;;0.00;0.00;;;20.60;99.90;;;;;;5051744;28;20178;-61
2023/08/18 02:39:37;;;;;;;0.00;0.00;;;20.60;99.90;;;;;;5051849;28;20188;-61
2023/08/18 02:42:03;;;;;;;0.00;0.00;;;20.60;99.90;;;;;;5051629;28;20261;-61
2023/08/18 02:44:28;;;;;;;0.10;0.10;;;20.50;99.90;;;;;;5051913;28;20617;-62
2023/08/18 02:46:54;;;;;;;0.00;0.00;;;20.50;99.90;;;;;;5051646;28;20178;-61
2023/08/18 02:49:19;;;;;;;0.00;0.00;;;20.50;99.90;;;;;;5051540;28;20209;-62
2023/08/18 02:51:45;;;;;;;0.00;0.00;;;20.50;99.90;;;;;;5051548;28;20201;-62
2023/08/18 02:54:10;;;;;;;0.00;0.00;;;20.40;99.90;;;;;;5051414;28;20535;-61
2023/08/18 02:56:37;;;;;;;0.00;0.00;;;20.40;99.90;;;;;;5051392;28;20176;-62
2023/08/18 02:59:02;;;;;;;0.00;0.00;;;20.40;99.90;;;;;;5051372;28;20181;-62
2023/08/18 03:01:28;;;;;;;0.00;0.00;;;20.40;99.90;;;;;;5051149;28;20243;-61
2023/08/18 03:03:53;;;;;;;0.00;0.00;;;20.40;99.90;;;;;;5051192;28;20173;-61
2023/08/18 03:06:19;;;;;;;0.00;0.00;;;20.40;99.90;;;;;;5051428;28;20177;-61
2023/08/18 03:08:44;;;;;;;0.00;0.00;;;20.40;99.90;;;;;;5051078;28;20240;-61
2023/08/18 03:11:10;;;;;;;0.00;0.00;;;20.30;99.90;;;;;;5051215;28;20185;-61
2023/08/18 03:13:36;;;;;;;0.00;0.00;;;20.30;99.90;;;;;;5050041;28;20621;-61
2023/08/18 03:16:04;;;;;;;0.00;0.00;;;20.30;99.90;;;;;;5051231;28;20573;-62
2023/08/18 03:18:30;;;;;;;0.00;0.00;;;20.30;99.90;;;;;;5051310;28;20537;-61
2023/08/18 03:21:00;;;;;;;0.00;0.00;;;20.20;99.90;;;;;;5051205;28;20177;-61
2023/08/18 03:23:26;;;;;;;0.00;0.00;;;20.20;99.90;;;;;;5051117;28;20234;-61
2023/08/18 03:25:58;;;;;;;0.00;0.00;;;20.10;99.90;;;;;;5051025;28;20252;-61
2023/08/18 03:28:23;;;;;;;0.00;0.00;;;20.10;99.90;;;;;;5051059;28;20221;-61
2023/08/18 03:30:49;;;;;;;0.00;0.00;;;20.10;99.90;;;;;;5051207;28;20271;-61
2023/08/18 03:33:14;;;;;;;0.00;0.00;;;20.10;99.90;;;;;;5051070;28;20173;-61
2023/08/18 03:35:40;;;;;;;0.00;0.00;;;20.10;99.90;;;;;;5051246;28;20181;-61
2023/08/18 03:38:05;;;;;;;0.00;0.00;;;20.10;99.90;;;;;;5050876;28;20173;-61
2023/08/18 03:40:32;;;;;;;0.00;0.00;;;20.10;99.90;;;;;;5051189;28;20226;-61
2023/08/18 03:42:57;;;;;;;0.00;0.00;;;20.00;99.90;;;;;;5051027;28;20247;-61
2023/08/18 03:45:23;;;;;;;0.00;0.00;;;20.00;99.90;;;;;;5051093;28;20170;-61
2023/08/18 03:47:50;;;;;;;0.00;0.00;;;19.90;99.90;;;;;;5050753;28;20625;-61
2023/08/18 03:50:15;;;;;;;0.00;0.00;;;19.90;99.90;;;;;;5050717;28;20668;-61
2023/08/18 03:52:41;;;;;;;0.00;0.00;;;19.80;99.90;;;;;;5050928;28;20169;-61
2023/08/18 03:55:06;;;;;;;0.00;0.00;;;19.80;99.90;;;;;;5050687;28;20162;-62
2023/08/18 03:57:32;;;;;;;0.00;0.00;;;19.80;99.90;;;;;;5050818;28;20185;-61
2023/08/18 03:59:57;;;;;;;0.00;0.00;;;19.80;99.90;;;;;;5050719;28;20575;-62
2023/08/18 04:02:23;;;;;;;0.00;0.00;;;19.80;99.90;;;;;;5050881;28;20664;-62
2023/08/18 04:04:49;;;;;;;0.00;0.00;;;19.80;99.90;;;;;;5050784;28;20189;-62
2023/08/18 04:07:14;;;;;;;0.00;0.00;;;19.70;99.90;;;;;;5050605;28;20170;-61
2023/08/18 04:09:40;;;;;;;0.00;0.00;;;19.70;99.90;;;;;;5050592;28;20220;-61
2023/08/18 04:12:06;;;;;;;0.17;0.10;;;19.70;99.90;;;;;;5050431;28;20231;-61
2023/08/18 04:14:31;;;;;;;0.00;0.00;;;19.70;99.90;;;;;;5050438;28;20181;-61
2023/08/18 04:16:57;;;;;;;0.00;0.00;;;19.70;99.90;;;;;;5050529;28;20193;-61
2023/08/18 04:19:22;;;;;;;0.00;0.00;;;19.70;99.90;;;;;;5050588;28;20173;-61
2023/08/18 04:21:48;;;;;;;0.00;0.00;;;19.60;99.90;;;;;;5050412;28;20182;-61
2023/08/18 04:24:13;;;;;;;0.00;0.00;;;19.60;99.90;;;;;;5050500;28;20170;-61
2023/08/18 04:26:40;;;;;;;0.00;0.00;;;19.60;99.90;;;;;;5050552;28;20177;-61
2023/08/18 04:29:05;;;;;;;0.00;0.00;;;19.60;99.90;;;;;;5049992;28;20237;-61
2023/08/18 04:31:31;;;;;;;0.00;0.00;;;19.60;99.90;;;;;;5050492;28;20177;-61
2023/08/18 04:33:57;;;;;;;0.00;0.00;;;19.60;99.90;;;;;;5050410;28;20185;-61
2023/08/18 04:36:22;;;;;;;0.05;0.05;;;19.60;99.90;;;;;;5051424;28;20579;-61
2023/08/18 04:38:48;;;;;;;0.00;0.00;;;19.60;99.90;;;;;;5053954;28;20166;-61
2023/08/18 04:41:13;;;;;;;0.10;0.10;;;19.60;99.90;;;;;;5053828;28;20640;-62
2023/08/18 04:43:39;;;;;;;0.00;0.00;;;19.50;99.90;;;;;;5053939;28;20181;-61
2023/08/18 04:46:05;;;;;;;0.00;0.00;;;19.50;99.90;;;;;;5053617;28;20174;-61
2023/08/18 04:48:30;;;;;;;0.00;0.00;;;19.50;99.90;;;;;;5053770;28;20523;-61
2023/08/18 04:50:56;;;;;;;0.00;0.00;;;19.40;99.90;;;;;;5053755;28;20278;-61
2023/08/18 04:53:21;;;;;;;0.00;0.00;;;19.40;99.90;;;;;;5053649;28;20204;-62
2023/08/18 04:55:47;;;;;;;0.00;0.00;;;19.40;99.90;;;;;;5053455;28;20184;-61
2023/08/18 04:58:12;;;;;;;0.00;0.00;;;19.40;99.90;;;;;;5053369;28;20180;-61
2023/08/18 05:00:41;;;;;;;0.00;0.00;;;19.40;99.90;;;;;;5053349;28;20173;-61
2023/08/18 05:03:07;;;;;;;0.00;0.00;;;19.50;99.90;;;;;;5053050;28;20192;-61
2023/08/18 05:05:56;;;;;;;0.00;0.00;;;19.50;99.90;;;;;;5053140;28;20178;-62
2023/08/18 05:08:21;;;;;;;2.53;1.55;;;19.60;99.90;;;;;;5053008;28;20189;-61
2023/08/18 05:10:47;;;;;;;0.00;0.00;;;19.60;99.90;;;;;;5052868;28;20217;-61
2023/08/18 05:13:12;;;;;;;0.00;0.00;;;19.60;99.90;;;;;;5053129;28;20193;-61
2023/08/18 05:15:38;;;;;;;0.70;0.10;;;19.70;99.90;;;;;;5053135;28;20235;-61
2023/08/18 05:18:04;;;;;;;0.00;0.00;;;19.80;99.90;;;;;;5053021;28;20614;-61
2023/08/18 05:20:29;;;;;;;0.00;0.00;;;19.90;99.90;;;;;;5053069;28;20640;-61
2023/08/18 05:22:55;;;;;;;0.00;0.00;;;20.10;99.90;;;;;;5052956;28;20239;-62
2023/08/18 05:25:21;;;;;;;0.00;0.00;;;20.30;99.90;;;;;;5053219;28;20180;-62
2023/08/18 05:27:47;;;;;;;0.00;0.00;;;20.50;99.90;;;;;;5052954;28;20185;-61
2023/08/18 05:30:13;;;;;;;0.20;0.20;;;20.60;99.90;;;;;;5051300;28;20233;-61
2023/08/18 05:32:39;;;;;;;0.00;0.00;;;20.60;99.90;;;;;;5052790;28;20574;-61
2023/08/18 05:35:05;;;;;;;0.00;0.00;;;20.70;99.90;;;;;;5052663;28;20190;-62
2023/08/18 05:37:30;;;;;;;0.00;0.00;;;20.70;99.90;;;;;;5052709;28;20265;-61
2023/08/18 05:39:56;;;;;;;0.00;0.00;;;21.00;99.90;;;;;;5052507;28;20260;-62
2023/08/18 05:42:21;;;;;;;0.00;0.00;;;21.10;99.90;;;;;;5052491;28;20177;-62
2023/08/18 05:44:47;;;;;;;0.00;0.00;;;21.30;99.90;;;;;;5052442;28;20173;-61
2023/08/18 05:47:12;;;;;;;0.00;0.00;;;21.60;99.90;;;;;;5052451;28;20176;-62
2023/08/18 05:49:38;;;;;;;0.00;0.00;;;21.90;99.90;;;;;;5052492;28;20227;-62
2023/08/18 05:52:04;;;;;;;0.00;0.00;;;22.20;99.90;;;;;;5052247;28;20181;-61
2023/08/18 05:54:30;;;;;;;0.00;0.00;;;22.30;99.90;;;;;;5052366;28;20371;-61
2023/08/18 05:56:55;;;;;;;0.00;0.00;;;22.60;99.90;;;;;;5052306;28;20173;-61
2023/08/18 05:59:21;;;;;;;0.00;0.00;;;22.90;99.90;;;;;;5052192;28;20182;-62
2023/08/18 06:01:46;;;;;;;0.00;0.00;;;23.40;99.90;;;;;;5052130;28;20169;-62
2023/08/18 06:04:12;;;;;;;0.00;0.00;;;23.80;99.90;;;;;;5052155;28;20188;-62
2023/08/18 06:06:38;;;;;;;0.00;0.00;;;24.20;99.90;;;;;;5052233;28;20632;-61
2023/08/18 06:09:03;;;;;;;0.00;0.00;;;24.60;99.90;;;;;;5052106;28;20578;-62
2023/08/18 06:11:29;;;;;;;0.00;0.00;;;25.00;99.90;;;;;;5052232;28;20534;-62
2023/08/18 06:13:55;;;;;;;0.00;0.00;;;25.50;99.90;;;;;;5052062;28;20173;-62
2023/08/18 06:16:20;;;;;;;0.00;0.00;;;25.80;99.90;;;;;;5051986;28;20181;-62
2023/08/18 06:18:46;;;;;;;0.00;0.00;;;26.10;99.90;;;;;;5051983;28;20170;-62
2023/08/18 06:21:11;;;;;;;0.30;0.05;;;26.40;99.90;;;;;;5051760;28;20185;-61
2023/08/18 06:23:37;;;;;;;0.00;0.00;;;26.70;99.90;;;;;;5051857;28;20170;-62
2023/08/18 06:26:02;;;;;;;0.00;0.00;;;27.00;99.20;;;;;;5051851;28;20193;-62
2023/08/18 06:28:29;;;;;;;0.00;0.00;;;27.30;98.60;;;;;;5051162;28;20210;-62
2023/08/18 06:31:03;;;;;;;0.00;0.00;;;27.80;98.50;;;;;;5050410;28;20543;-61
2023/08/18 06:33:29;;;;;;;0.00;0.00;;;28.00;96.80;;;;;;5052203;28;20537;-61
2023/08/18 06:35:54;;;;;;;0.00;0.00;;;28.40;96.60;;;;;;5050596;28;20168;-61
2023/08/18 06:38:20;;;;;;;0.15;0.15;;;28.60;95.50;;;;;;5051938;28;20176;-62
2023/08/18 06:40:45;;;;;;;0.00;0.00;;;29.00;94.90;;;;;;5051668;28;20211;-62
2023/08/18 06:43:11;;;;;;;0.00;0.00;;;29.20;93.80;;;;;;5051737;28;20267;-62
2023/08/18 06:45:36;;;;;;;0.00;0.00;;;29.20;93.40;;;;;;5051830;28;20625;-62
2023/08/18 06:48:02;;;;;;;0.00;0.00;;;29.40;93.00;;;;;;5051763;28;20235;-63
2023/08/18 06:50:28;;;;;;;0.00;0.00;;;29.50;92.60;;;;;;5051626;28;20304;-61
2023/08/18 06:52:53;;;;;;;0.00;0.00;;;29.80;92.70;;;;;;5051614;28;20259;-61
2023/08/18 06:55:19;;;;;;;0.00;0.00;;;30.10;91.70;;;;;;5051480;28;20169;-61
2023/08/18 06:57:45;;;;;;;0.00;0.00;;;30.40;91.10;;;;;;5051378;28;20823;-61
2023/08/18 07:00:11;;;;;;;0.00;0.00;;;30.80;90.30;;;;;;5051019;28;20189;-61
2023/08/18 07:02:36;;;;;;;0.00;0.00;;;31.10;90.30;;;;;;5051562;28;20184;-62
2023/08/18 07:05:05;;;;;;;0.00;0.00;;;31.60;88.60;;;;;;5050237;28;20205;-61
2023/08/18 07:07:32;;;;;;;0.00;0.00;;;32.10;87.70;;;;;;5051443;28;20779;-61
2023/08/18 07:09:58;;;;;;;0.00;0.00;;;32.60;83.70;;;;;;5051416;28;20631;-61
2023/08/18 07:12:23;;;;;;;0.00;0.00;;;32.90;82.80;;;;;;5051194;28;20268;-61
2023/08/18 07:14:49;;;;;;;0.00;0.00;;;33.20;79.60;;;;;;5051374;28;20271;-62
2023/08/18 07:17:15;;;;;;;0.00;0.00;;;33.50;77.70;;;;;;5051190;28;20180;-62
2023/08/18 07:19:40;;;;;;;0.00;0.00;;;33.80;76.70;;;;;;5051458;28;20181;-61
2023/08/18 07:22:06;;;;;;;0.00;0.00;;;34.20;76.40;;;;;;5051093;28;20689;-61
2023/08/18 07:24:32;;;;;;;0.00;0.00;;;34.60;72.00;;;;;;5051289;28;20184;-62
2023/08/18 07:26:57;;;;;;;0.00;0.00;;;34.80;71.90;;;;;;5051170;28;20181;-62
2023/08/18 07:29:23;;;;;;;0.00;0.00;;;35.00;70.60;;;;;;5050945;28;20224;-62
2023/08/18 07:31:48;;;;;;;0.00;0.00;;;35.00;69.70;;;;;;5051109;28;20177;-62
2023/08/18 07:34:14;;;;;;;0.00;0.00;;;34.80;68.90;;;;;;5051228;28;20177;-62
2023/08/18 07:36:39;;;;;;;0.00;0.00;;;34.80;68.60;;;;;;5051143;28;20188;-62
2023/08/18 07:39:10;;;;;;;0.00;0.00;;;34.50;68.00;;;;;;5051000;28;20246;-62
2023/08/18 07:41:39;;;;;;;0.00;0.00;;;34.50;70.40;;;;;;5051285;28;20207;-62
2023/08/18 07:44:05;;;;;;;0.00;0.00;;;34.90;70.70;;;;;;5050981;28;20216;-62
2023/08/18 07:46:30;;;;;;;0.00;0.00;;;35.40;68.90;;;;;;5051230;28;20200;-62
2023/08/18 07:48:56;;;;;;;0.17;0.17;;;35.70;65.80;;;;;;5051003;28;20294;-62
2023/08/18 07:51:21;;;;;;;0.00;0.00;;;35.80;65.20;;;;;;5051097;28;20176;-62
2023/08/18 07:53:47;;;;;;;0.00;0.00;;;35.60;63.20;;;;;;5050909;28;20219;-62
2023/08/18 07:56:12;;;;;;;0.00;0.00;;;35.50;64.40;;;;;;5050953;28;20314;-62
2023/08/18 07:58:38;;;;;;;0.00;0.00;;;35.50;64.50;;;;;;5051106;28;20165;-62
2023/08/18 08:01:03;;;;;;;0.00;0.00;;;35.70;64.50;;;;;;5050787;28;20188;-62
2023/08/18 08:03:29;;;;;;;0.00;0.00;;;35.80;63.00;;;;;;5050938;28;20177;-62
2023/08/18 08:05:55;;;;;;;0.00;0.00;;;35.80;63.00;;;;;;5050973;28;20176;-62
2023/08/18 08:08:20;;;;;;;0.00;0.00;;;36.00;63.40;;;;;;5050865;28;20197;-62
2023/08/18 08:10:46;;;;;;;0.00;0.00;;;36.20;62.60;;;;;;5050728;28;20209;-62
2023/08/18 08:13:11;;;;;;;0.00;0.00;;;36.30;60.30;;;;;;5054607;28;20177;-62
2023/08/18 08:15:37;;;;;;;0.00;0.00;;;36.40;61.30;;;;;;5054842;28;20181;-62
2023/08/18 08:18:03;;;;;;;0.00;0.00;;;36.50;62.30;;;;;;5054672;28;20508;-62
2023/08/18 08:20:29;;;;;;;0.00;0.00;;;36.70;61.10;;;;;;5054648;28;20188;-62
2023/08/18 08:22:54;;;;;;;0.00;0.00;;;36.80;59.20;;;;;;5054589;28;20173;-62
2023/08/18 08:25:20;;;;;;;0.00;0.00;;;36.90;58.00;;;;;;5054509;28;20601;-62
2023/08/18 08:27:45;;;;;;;0.43;0.10;;;37.20;59.30;;;;;;5054372;28;20173;-62
2023/08/18 08:30:13;;;;;;;0.00;0.00;;;37.20;57.80;;;;;;5054143;28;20835;-62
2023/08/18 08:32:38;;;;;;;0.38;0.10;;;37.40;58.40;;;;;;5054371;28;20184;-62
2023/08/18 08:35:04;;;;;;;0.00;0.00;;;37.30;57.80;;;;;;5054012;28;20181;-62
2023/08/18 08:37:30;;;;;;;0.00;0.00;;;37.30;56.90;;;;;;5052971;28;20181;-62
2023/08/18 08:39:56;;;;;;;0.00;0.00;;;37.30;56.70;;;;;;5054260;28;20205;-62
2023/08/18 08:42:22;;;;;;;0.00;0.00;;;37.20;57.20;;;;;;5054316;28;20177;-62
2023/08/18 08:44:48;;;;;;;0.00;0.00;;;37.10;58.10;;;;;;5053982;28;20238;-62
2023/08/18 08:47:14;;;;;;;0.00;0.00;;;37.10;56.50;;;;;;5054006;28;20575;-62
2023/08/18 08:49:43;;;;;;;0.00;0.00;;;37.20;57.20;;;;;;5053945;28;20263;-61
2023/08/18 08:52:11;;;;;;;0.00;0.00;;;37.30;56.70;;;;;;5053925;28;20173;-61
2023/08/18 08:54:59;;;;;;;0.00;0.00;;;37.50;55.50;;;;;;5054047;28;20207;-61
2023/08/18 08:57:25;;;;;;;0.00;0.00;;;37.70;54.60;;;;;;5053590;28;20177;-61
2023/08/18 08:59:51;;;;;;;0.00;0.00;;;37.60;54.30;;;;;;5053905;28;20173;-61
2023/08/18 09:02:16;;;;;;;0.00;0.00;;;37.40;54.70;;;;;;5053810;28;20181;-61
2023/08/18 09:04:42;;;;;;;0.00;0.00;;;37.20;54.20;;;;;;5053735;28;20169;-61
2023/08/18 09:07:11;;;;;;;0.00;0.00;;;37.10;53.80;;;;;;5053470;28;20173;-61
2023/08/18 09:09:36;;;;;;;0.00;0.00;;;36.80;53.00;;;;;;5053703;28;20270;-61
2023/08/18 09:12:06;;;;;;;0.00;0.00;;;36.80;54.40;;;;;;5053502;28;20656;-61
2023/08/18 09:14:34;;;;;;;0.00;0.00;;;36.80;52.40;;;;;;5053615;28;20235;-61
2023/08/18 09:17:00;;;;;;;0.00;0.00;;;36.80;52.00;;;;;;5053485;28;20173;-61
2023/08/18 09:19:26;;;;;;;0.00;0.00;;;36.70;53.40;;;;;;5053349;28;20642;-61
2023/08/18 09:21:51;;;;;;;0.00;0.00;;;36.50;53.40;;;;;;5053196;28;20180;-61
2023/08/18 09:24:21;;;;;;;0.00;0.00;;;36.50;53.70;;;;;;5053321;28;20176;-61
2023/08/18 09:26:46;;;;;;;0.00;0.00;;;36.70;55.10;;;;;;5053264;28;20161;-61
2023/08/18 09:29:12;;;;;;;0.00;0.00;;;36.90;52.30;;;;;;5052899;28;20239;-61
2023/08/18 09:31:37;;;;;;;0.00;0.00;;;37.00;53.20;;;;;;5053332;28;20177;-61
2023/08/18 09:34:03;;;;;;;0.00;0.00;;;37.20;53.00;;;;;;5053222;28;20271;-61
2023/08/18 09:36:31;;;;;;;0.00;0.00;;;37.30;53.40;;;;;;5053254;28;20636;-61
2023/08/18 09:38:57;;;;;;;0.00;0.00;;;37.50;51.90;;;;;;5053047;28;20181;-61
2023/08/18 09:41:23;;;;;;;1.00;0.95;;;37.50;53.60;;;;;;5053104;28;20188;-61
2023/08/18 09:43:49;;;;;;;0.00;0.00;;;37.50;53.20;;;;;;5052959;28;20658;-61
2023/08/18 09:46:17;;;;;;;0.00;0.00;;;37.60;54.40;;;;;;5052932;28;20173;-61
2023/08/18 09:48:49;;;;;;;0.00;0.00;;;37.70;51.00;;;;;;5052938;28;20199;-62
2023/08/18 09:51:18;;;;;;;0.10;0.10;;;37.60;51.50;;;;;;5052872;28;20188;-62
2023/08/18 09:53:54;;;;;;;0.00;0.00;;;37.70;48.90;;;;;;5052802;28;20180;-62
2023/08/18 09:56:26;;;;;;;0.00;0.00;;;37.80;50.30;;;;;;5052914;28;20176;-62
2023/08/18 09:59:12;;;;;;;0.00;0.00;;;38.00;53.50;;;;;;5052766;28;20177;-62
2023/08/18 10:01:38;;;;;;;0.00;0.00;;;37.80;50.90;;;;;;5052779;28;20291;-62
2023/08/18 10:04:05;;;;;;;0.00;0.00;;;37.70;51.70;;;;;;5052653;28;20173;-62
2023/08/18 10:06:33;;;;;;;0.00;0.00;;;37.50;49.70;;;;;;5052574;28;20675;-62
2023/08/18 10:09:00;;;;;;;0.00;0.00;;;37.40;52.40;;;;;;5052452;28;20261;-62
2023/08/18 10:11:26;;;;;;;0.00;0.00;;;37.10;52.40;;;;;;5052500;28;20180;-62
2023/08/18 10:13:52;;;;;;;0.00;0.00;;;37.10;52.20;;;;;;5052304;28;20172;-62
2023/08/18 10:16:18;;;;;;;0.00;0.00;;;37.20;52.40;;;;;;5052306;28;20169;-62
2023/08/18 10:18:44;;;;;;;0.00;0.00;;;37.40;51.60;;;;;;5052425;28;20169;-62
2023/08/18 10:21:11;;;;;;;0.00;0.00;;;37.60;51.10;;;;;;5052234;28;20330;-63
2023/08/18 10:23:39;;;;;;;0.00;0.00;;;37.70;49.60;;;;;;5052467;28;20184;-62
2023/08/18 10:26:04;;;;;;;0.00;0.00;;;37.70;49.10;;;;;;5051876;28;20164;-62
2023/08/18 10:28:32;;;;;;;0.00;0.00;;;37.60;49.70;;;;;;5051989;28;20311;-62
2023/08/18 10:31:00;;;;;;;0.00;0.00;;;37.50;50.20;;;;;;5052029;28;20271;-62
2023/08/18 10:33:38;;;;;;;0.00;0.00;;;37.30;50.00;;;;;;5051865;28;20302;-62
2023/08/18 10:36:06;;;;;;;0.00;0.00;;;37.20;50.40;;;;;;5051737;28;20185;-62
2023/08/18 10:38:34;;;;;;;0.00;0.00;;;37.30;50.80;;;;;;5052048;28;20177;-62
2023/08/18 10:40:59;;;;;;;0.00;0.00;;;37.30;49.50;;;;;;5051911;28;20223;-62
2023/08/18 10:43:27;;;;;;;0.00;0.00;;;37.30;49.10;;;;;;5051893;28;20180;-62
2023/08/18 10:45:59;;;;;;;0.00;0.00;;;37.20;51.20;;;;;;5051803;28;20629;-62
2023/08/18 10:48:29;;;;;;;0.00;0.00;;;37.30;50.70;;;;;;5051865;28;20188;-62
2023/08/18 10:50:55;;;;;;;0.00;0.00;;;37.20;50.00;;;;;;5051791;28;20342;-62
2023/08/18 10:53:21;;;;;;;0.00;0.00;;;37.10;47.20;;;;;;5051729;28;20208;-63
2023/08/18 10:55:46;;;;;;;0.00;0.00;;;37.10;49.20;;;;;;5051536;28;20272;-63
2023/08/18 10:58:14;;;;;;;0.00;0.00;;;37.20;48.30;;;;;;5051582;28;20259;-62
2023/08/18 11:00:41;;;;;;;0.00;0.00;;;37.00;47.70;;;;;;5051801;28;20181;-62
2023/08/18 11:03:07;;;;;;;0.00;0.00;;;36.90;46.90;;;;;;5051619;28;20165;-62
2023/08/18 11:05:33;;;;;;;0.00;0.00;;;37.00;47.70;;;;;;5051692;28;20200;-62
2023/08/18 11:08:00;;;;;;;0.00;0.00;;;37.20;48.30;;;;;;5051603;28;20652;-62
2023/08/18 11:10:27;;;;;;;0.00;0.00;;;37.10;47.40;;;;;;5051264;28;20668;-62
2023/08/18 11:12:54;;;;;;;0.00;0.00;;;36.80;47.20;;;;;;5051458;28;20257;-62
2023/08/18 11:15:20;;;;;;;0.00;0.00;;;36.70;46.40;;;;;;5051441;28;20177;-62
2023/08/18 11:17:47;;;;;;;0.00;0.00;;;36.80;46.40;;;;;;5051348;28;20293;-62
2023/08/18 11:20:13;;;;;;;0.00;0.00;;;36.80;47.00;;;;;;5051319;28;20181;-62
2023/08/18 11:22:47;;;;;;;0.00;0.00;;;36.80;46.90;;;;;;5051384;28;20251;-62
2023/08/18 11:25:14;;;;;;;0.00;0.00;;;36.50;45.90;;;;;;5051333;28;20215;-62
2023/08/18 11:27:42;;;;;;;0.00;0.00;;;36.00;46.40;;;;;;5051341;28;20183;-62
2023/08/18 11:30:10;;;;;;;0.00;0.00;;;35.70;48.90;;;;;;5050784;28;20727;-62
2023/08/18 11:32:37;;;;;;;0.00;0.00;;;36.00;50.50;;;;;;5051390;28;20570;-62
2023/08/18 11:35:04;;;;;;;0.00;0.00;;;36.20;48.00;;;;;;5051119;28;20172;-62
2023/08/18 11:37:30;;;;;;;0.00;0.00;;;36.40;49.40;;;;;;5051245;28;20173;-62
2023/08/18 11:39:56;;;;;;;0.00;0.00;;;36.50;50.00;;;;;;5051137;28;20608;-62
2023/08/18 11:42:22;;;;;;;0.00;0.00;;;36.60;50.00;;;;;;5050967;28;20230;-62
2023/08/18 11:44:50;;;;;;;0.00;0.00;;;36.80;50.00;;;;;;5051015;28;20539;-62
2023/08/18 11:47:17;;;;;;;0.00;0.00;;;36.90;49.60;;;;;;5055264;28;20203;-62
2023/08/18 11:49:44;;;;;;;0.00;0.00;;;37.00;48.70;;;;;;5055331;28;20629;-63
2023/08/18 11:52:09;;;;;;;0.63;0.63;;;37.00;48.70;;;;;;5055235;28;20716;-62
2023/08/18 11:54:36;;;;;;;0.00;0.00;;;36.80;48.50;;;;;;5055205;28;20188;-62
2023/08/18 11:57:04;;;;;;;0.00;0.00;;;36.70;47.90;;;;;;5054759;28;20666;-62
2023/08/18 11:59:29;;;;;;;0.00;0.00;;;36.60;48.10;;;;;;5054990;28;21293;-62
2023/08/18 12:02:00;;;;;;;0.00;0.00;;;36.70;49.10;;;;;;5054924;28;20173;-63
2023/08/18 12:04:30;;;;;;;0.00;0.00;;;36.90;48.70;;;;;;5054706;28;20188;-62
2023/08/18 12:06:56;;;;;;;0.00;0.00;;;37.00;48.40;;;;;;5054837;28;20177;-62
2023/08/18 12:09:23;;;;;;;0.00;0.00;;;36.80;47.60;;;;;;5054829;28;20205;-63
2023/08/18 12:11:49;;;;;;;0.00;0.00;;;36.70;48.50;;;;;;5054660;28;20310;-62
2023/08/18 12:14:16;;;;;;;0.00;0.00;;;36.50;50.00;;;;;;5054712;28;20205;-62
2023/08/18 12:16:42;;;;;;;0.00;0.00;;;36.50;49.30;;;;;;5054781;28;20259;-62
2023/08/18 12:19:08;;;;;;;0.00;0.00;;;36.60;48.70;;;;;;5054599;28;20264;-62
2023/08/18 12:21:37;;;;;;;0.00;0.00;;;36.70;48.80;;;;;;5053336;28;20254;-62
2023/08/18 12:24:06;;;;;;;0.00;0.00;;;36.70;49.70;;;;;;5054510;28;20647;-62
2023/08/18 12:26:33;;;;;;;0.00;0.00;;;36.70;48.50;;;;;;5054557;28;20181;-62
2023/08/18 12:28:58;;;;;;;0.00;0.00;;;36.60;48.40;;;;;;5054060;28;20227;-62
2023/08/18 12:31:24;;;;;;;0.00;0.00;;;36.60;49.70;;;;;;5054397;28;20180;-62
2023/08/18 12:33:53;;;;;;;0.00;0.00;;;36.50;48.50;;;;;;5054372;28;20259;-62
2023/08/18 12:36:19;;;;;;;0.08;0.08;;;36.70;49.00;;;;;;5054241;28;20204;-63
2023/08/18 12:38:45;;;;;;;0.65;0.65;;;36.80;48.50;;;;;;5054206;28;20203;-62
2023/08/18 12:41:13;;;;;;;0.00;0.00;;;36.90;48.70;;;;;;5054031;28;20188;-62
2023/08/18 12:43:38;;;;;;;0.00;0.00;;;36.90;47.80;;;;;;5054130;28;20558;-62